Preview of NWS' New Version of Forecast
This preview is not operational and should not be used for support decisions.

Terminal Aerodrome Forecast (TAF)

Issued by National Weather Service (NWS)

                            
000
FTUS42 KKEY 261738
TAFEYW
TAF
KEYW 261738Z 2618/2718 13013G21KT P6SM -RA SCT018 BKN050 OVC100
      TEMPO 2618/2620 15020G30KT 3SM SHRA BR BKN012 OVC040
     FM262000 14023G30KT 5SM -RA VCSH SCT015 BKN040 OVC060
      TEMPO 2620/2624 1SM +SHRA BKN010 OVC020
     FM270000 15025G34KT 3SM RA VCTS SCT010 OVC020CB
     FM270900 18030G39KT 5SM -RA VCTS SCT012 OVC025CB=